createdAt,value
2023-03-03T17:26:37.620Z,87.20
2023-03-03T17:31:47.013Z,84.80
2023-03-03T17:37:05.830Z,86.30
2023-03-03T17:42:19.119Z,87.20
2023-03-03T17:47:34.424Z,88.00
2023-03-03T17:53:09.828Z,88.70
2023-03-03T17:58:45.145Z,89.70
2023-03-03T18:04:38.298Z,90.30
2023-03-03T18:10:11.237Z,90.70
2023-03-03T18:15:46.630Z,91.10
2023-03-03T18:21:02.345Z,91.60
2023-03-03T18:26:27.912Z,91.90
2023-03-03T18:31:48.288Z,92.30
2023-03-03T18:36:57.544Z,92.60
2023-03-03T18:42:35.576Z,93.10
2023-03-03T18:48:22.135Z,94.00
2023-03-03T18:53:30.554Z,94.30
2023-03-03T18:58:41.388Z,94.70
2023-03-03T19:04:16.331Z,94.90
2023-03-03T19:09:22.533Z,95.40
2023-03-03T19:14:35.225Z,95.60
2023-03-03T19:20:03.311Z,96.00
2023-03-03T19:25:32.919Z,96.10
2023-03-03T19:30:53.047Z,96.60
2023-03-03T19:36:40.881Z,96.90
2023-03-03T19:41:57.556Z,97.40
2023-03-03T19:47:06.317Z,97.60
2023-03-03T19:52:19.868Z,97.90
2023-03-03T19:57:38.167Z,98.30
2023-03-03T20:02:50.464Z,98.70
2023-03-03T20:08:03.509Z,99.10
2023-03-03T20:13:37.462Z,99.20
2023-03-03T20:19:16.630Z,99.40
2023-03-03T20:24:51.681Z,99.60
2023-03-03T20:30:19.083Z,99.90
2023-03-03T20:35:35.198Z,99.90
2023-03-03T20:40:47.170Z,99.90
2023-03-03T20:45:58.892Z,99.90
2023-03-03T20:51:07.830Z,99.90
2023-03-03T20:56:18.300Z,99.70
2023-03-03T21:01:27.857Z,99.50
2023-03-03T21:06:41.084Z,99.20
2023-03-03T21:11:48.792Z,99.10
2023-03-03T21:16:56.703Z,98.60
2023-03-03T21:22:02.904Z,98.20
2023-03-03T21:27:27.360Z,97.80
2023-03-03T21:32:43.599Z,97.40
2023-03-03T21:37:52.234Z,97.00
2023-03-03T21:43:01.813Z,96.70
2023-03-03T21:48:08.151Z,96.40
2023-03-03T21:53:13.280Z,96.10
2023-03-03T21:58:21.184Z,96.00
2023-03-03T22:03:29.096Z,95.90
2023-03-03T22:08:34.434Z,95.70
2023-03-03T22:13:42.567Z,95.80
2023-03-03T22:18:47.739Z,95.80
2023-03-03T22:23:53.033Z,95.70
2023-03-03T22:29:00.984Z,95.50
2023-03-03T22:34:06.184Z,95.20
2023-03-03T22:39:11.542Z,95.00
2023-03-03T22:44:19.399Z,94.80
2023-03-03T22:49:24.608Z,94.70
2023-03-03T22:54:29.853Z,94.50
2023-03-03T22:59:37.731Z,94.30
2023-03-03T23:04:42.944Z,94.10
2023-03-03T23:09:48.209Z,93.90
